createdAt,value
2022-08-25T00:02:12.421Z,75.06
2022-08-25T00:04:39.017Z,75.52
2022-08-25T00:07:07.026Z,75.51
2022-08-25T00:09:34.692Z,75.85
2022-08-25T00:12:02.983Z,76.07
2022-08-25T00:14:35.963Z,76.50
2022-08-25T00:17:05.212Z,76.72
2022-08-25T00:19:35.393Z,76.81
2022-08-25T00:22:02.752Z,77.21
2022-08-25T00:24:29.684Z,77.44
2022-08-25T00:26:58.226Z,77.68
2022-08-25T00:29:26.370Z,77.83
2022-08-25T00:31:53.912Z,78.48
2022-08-25T00:34:23.826Z,78.74
2022-08-25T00:36:53.375Z,79.03
2022-08-25T00:39:22.910Z,79.45
2022-08-25T00:41:51.157Z,79.78
2022-08-25T00:44:18.856Z,80.33
2022-08-25T00:46:51.730Z,80.97
2022-08-25T00:49:29.353Z,81.45
2022-08-25T00:52:02.928Z,81.74
2022-08-25T00:54:37.626Z,82.26
2022-08-25T00:57:05.707Z,82.48
2022-08-25T00:59:32.809Z,82.73
2022-08-25T01:01:59.978Z,83.02
2022-08-25T01:04:27.295Z,83.53
2022-08-25T01:06:55.728Z,83.53
2022-08-25T01:09:22.617Z,83.95
2022-08-25T01:11:49.521Z,84.09
2022-08-25T01:14:18.206Z,84.32
2022-08-25T01:16:45.291Z,84.66
2022-08-25T01:19:15.387Z,84.86
2022-08-25T01:21:48.261Z,84.97
2022-08-25T01:24:31.762Z,85.21
2022-08-25T01:26:58.553Z,85.35
2022-08-25T01:29:27.689Z,85.73
2022-08-25T01:32:00.252Z,86.00
2022-08-25T01:34:29.846Z,86.39
2022-08-25T01:36:57.797Z,86.59
2022-08-25T01:39:26.680Z,86.77
2022-08-25T01:42:02.791Z,87.09
2022-08-25T01:44:30.820Z,87.22
2022-08-25T01:46:57.406Z,87.35
2022-08-25T01:49:23.893Z,87.97
2022-08-25T01:52:01.326Z,88.10
2022-08-25T01:54:27.889Z,88.65
2022-08-25T01:56:54.424Z,88.87
2022-08-25T01:59:24.121Z,89.08
2022-08-25T02:01:51.886Z,89.58
2022-08-25T02:04:26.871Z,89.63
2022-08-25T02:06:53.409Z,90.02
2022-08-25T02:09:19.904Z,90.26
2022-08-25T02:11:47.860Z,90.63
2022-08-25T02:14:16.888Z,91.05
2022-08-25T02:16:48.293Z,91.45
2022-08-25T02:19:15.597Z,91.79
2022-08-25T02:21:42.412Z,92.03
2022-08-25T02:24:09.987Z,92.07
2022-08-25T02:26:36.577Z,92.36
2022-08-25T02:29:04.604Z,92.52
2022-08-25T02:31:31.541Z,92.57
2022-08-25T02:33:58.127Z,93.14
2022-08-25T02:36:24.826Z,93.15
2022-08-25T02:38:51.355Z,93.80
2022-08-25T02:41:21.441Z,93.79
2022-08-25T02:43:49.409Z,93.83
2022-08-25T02:46:19.925Z,93.99
2022-08-25T02:48:47.809Z,94.22
2022-08-25T02:51:14.804Z,94.40
2022-08-25T02:53:42.184Z,94.52
2022-08-25T02:56:10.519Z,94.62
2022-08-25T02:58:38.704Z,94.84
2022-08-25T03:01:06.800Z,95.46
2022-08-25T03:03:38.828Z,95.64
2022-08-25T03:06:08.668Z,95.94
2022-08-25T03:08:36.793Z,96.44
2022-08-25T03:11:05.079Z,96.42
2022-08-25T03:13:32.611Z,96.41
2022-08-25T03:16:00.600Z,96.47
2022-08-25T03:18:27.636Z,96.38
2022-08-25T03:20:55.106Z,96.47
2022-08-25T03:23:21.670Z,96.84
2022-08-25T03:26:07.229Z,96.96
2022-08-25T03:28:33.978Z,97.31
2022-08-25T03:31:01.178Z,97.64
2022-08-25T03:33:30.237Z,98.02
2022-08-25T03:35:57.457Z,98.47
2022-08-25T03:38:25.326Z,98.73
2022-08-25T03:40:52.497Z,99.23
2022-08-25T03:43:19.625Z,99.73
2022-08-25T03:45:47.212Z,99.74
2022-08-25T03:48:15.181Z,100.00
2022-08-25T03:50:50.468Z,100.00
2022-08-25T03:53:18.922Z,100.00
2022-08-25T03:55:45.615Z,100.00
2022-08-25T03:58:12.394Z,100.00
2022-08-25T04:00:39.381Z,100.00
2022-08-25T04:03:06.039Z,100.00
2022-08-25T04:05:32.742Z,100.00
2022-08-25T04:08:01.821Z,100.00
2022-08-25T04:10:29.291Z,100.00
2022-08-25T04:12:56.212Z,100.00
2022-08-25T04:15:24.899Z,100.00
2022-08-25T04:17:55.369Z,100.00
2022-08-25T04:20:22.049Z,100.00
2022-08-25T04:22:48.637Z,100.00
2022-08-25T04:25:15.223Z,100.00
2022-08-25T04:27:42.103Z,100.00
2022-08-25T04:30:09.870Z,100.00
2022-08-25T04:32:37.033Z,100.00
2022-08-25T04:35:05.280Z,100.00
2022-08-25T04:37:32.474Z,100.00
2022-08-25T04:39:59.067Z,100.00
2022-08-25T04:42:27.165Z,100.00
2022-08-25T04:44:54.498Z,100.00
2022-08-25T04:47:21.266Z,100.00
2022-08-25T04:49:47.858Z,100.00
2022-08-25T04:52:17.283Z,100.00
2022-08-25T04:54:43.995Z,100.00
2022-08-25T04:57:10.972Z,100.00
2022-08-25T04:59:37.924Z,100.00
2022-08-25T05:02:06.674Z,100.00
2022-08-25T05:04:35.514Z,100.00
2022-08-25T05:07:03.073Z,100.00
2022-08-25T05:09:32.488Z,100.00
2022-08-25T05:12:00.993Z,100.00
2022-08-25T05:14:28.682Z,100.00
2022-08-25T05:16:56.103Z,100.00
2022-08-25T05:19:24.102Z,100.00
2022-08-25T05:21:51.273Z,100.00
2022-08-25T05:24:18.359Z,100.00
2022-08-25T05:26:44.850Z,100.00
2022-08-25T05:29:12.745Z,100.00
2022-08-25T05:31:43.176Z,100.00
2022-08-25T05:34:12.161Z,100.00
2022-08-25T05:36:43.137Z,100.00
2022-08-25T05:39:10.565Z,100.00
2022-08-25T05:41:37.812Z,100.00
2022-08-25T05:44:04.508Z,100.00
2022-08-25T05:46:32.053Z,100.00
2022-08-25T05:48:59.170Z,100.00
2022-08-25T05:51:26.751Z,100.00
2022-08-25T05:53:54.054Z,100.00
2022-08-25T05:56:21.603Z,100.00
2022-08-25T05:58:48.885Z,100.00
2022-08-25T06:01:43.548Z,100.00
2022-08-25T06:04:12.397Z,100.00
2022-08-25T06:06:39.572Z,100.00
2022-08-25T06:09:08.573Z,100.00
2022-08-25T06:11:37.300Z,100.00
2022-08-25T06:14:04.649Z,100.00
2022-08-25T06:16:31.531Z,100.00
2022-08-25T06:18:58.688Z,100.00
2022-08-25T06:21:25.442Z,100.00
2022-08-25T06:23:52.728Z,100.00
2022-08-25T06:26:21.151Z,100.00
2022-08-25T06:28:52.140Z,100.00
2022-08-25T06:31:20.593Z,100.00
2022-08-25T06:33:47.316Z,100.00
2022-08-25T06:36:15.029Z,100.00
2022-08-25T06:38:41.504Z,100.00
2022-08-25T06:41:10.569Z,100.00
2022-08-25T06:43:37.100Z,100.00
2022-08-25T06:46:14.056Z,100.00
2022-08-25T06:48:41.101Z,100.00
2022-08-25T06:51:09.492Z,100.00
2022-08-25T06:53:40.613Z,100.00
2022-08-25T06:56:07.276Z,100.00
2022-08-25T06:58:34.311Z,100.00
2022-08-25T07:01:14.911Z,100.00
2022-08-25T07:03:43.731Z,100.00
2022-08-25T07:06:10.410Z,100.00
2022-08-25T07:08:37.215Z,100.00
2022-08-25T07:11:08.150Z,100.00
2022-08-25T07:13:43.974Z,100.00
2022-08-25T07:16:15.468Z,100.00
2022-08-25T07:18:44.214Z,100.00
2022-08-25T07:21:12.350Z,100.00
2022-08-25T07:23:40.076Z,100.00
2022-08-25T07:29:08.320Z,100.00
2022-08-25T07:31:35.356Z,99.55
2022-08-25T07:34:20.751Z,99.39
2022-08-25T07:36:47.581Z,98.81
2022-08-25T07:39:14.052Z,98.55
2022-08-25T07:41:42.096Z,97.95
2022-08-25T07:44:10.590Z,97.55
2022-08-25T07:46:38.256Z,96.95
2022-08-25T07:49:13.315Z,96.75
2022-08-25T07:52:04.560Z,96.18
2022-08-25T07:54:34.337Z,95.67
2022-08-25T07:57:01.563Z,95.21
2022-08-25T07:59:28.264Z,94.85
2022-08-25T08:01:54.833Z,94.27
2022-08-25T08:04:22.247Z,94.04
2022-08-25T08:06:48.707Z,93.38
2022-08-25T08:09:16.154Z,92.93
2022-08-25T08:11:53.753Z,92.32
2022-08-25T08:14:21.314Z,91.45
2022-08-25T08:16:47.773Z,90.95
2022-08-25T08:19:16.565Z,90.20
2022-08-25T08:21:43.810Z,89.88
2022-08-25T08:24:31.112Z,89.02
2022-08-25T08:26:58.927Z,88.16
2022-08-25T08:29:25.893Z,87.38
2022-08-25T08:31:52.511Z,86.30
2022-08-25T08:34:18.998Z,85.61
2022-08-25T08:36:45.566Z,85.06
2022-08-25T08:39:12.309Z,83.99
2022-08-25T08:42:17.167Z,83.53
2022-08-25T08:44:46.586Z,82.95
2022-08-25T08:47:42.697Z,82.46
2022-08-25T08:50:47.878Z,82.02
2022-08-25T08:53:23.537Z,80.86
2022-08-25T08:55:55.680Z,81.16
2022-08-25T08:58:42.289Z,80.39
2022-08-25T09:01:17.611Z,80.18
2022-08-25T09:03:55.302Z,78.88
2022-08-25T09:06:31.808Z,78.67
2022-08-25T09:09:02.041Z,78.19
2022-08-25T09:11:46.641Z,77.66
2022-08-25T09:14:35.996Z,77.36
2022-08-25T09:17:16.911Z,75.88
2022-08-25T09:20:18.900Z,75.75
2022-08-25T09:22:59.025Z,74.51
2022-08-25T09:25:52.765Z,74.41
2022-08-25T09:28:35.708Z,73.77
2022-08-25T09:31:29.805Z,73.69
2022-08-25T09:33:59.950Z,73.71
2022-08-25T09:36:27.001Z,71.75
2022-08-25T09:38:53.516Z,71.43
2022-08-25T09:41:51.555Z,71.79
2022-08-25T09:44:24.292Z,71.27
2022-08-25T09:47:01.937Z,70.64
2022-08-25T09:49:38.847Z,70.79
2022-08-25T09:52:32.558Z,70.85
2022-08-25T09:55:27.458Z,71.10
2022-08-25T09:57:56.842Z,70.38
2022-08-25T10:00:33.679Z,70.00
2022-08-25T10:03:22.704Z,69.87
2022-08-25T10:06:12.806Z,69.87
2022-08-25T10:08:45.676Z,70.07
2022-08-25T10:11:15.435Z,69.69
2022-08-25T10:13:47.432Z,69.60
2022-08-25T10:16:30.818Z,69.52
2022-08-25T10:19:10.597Z,68.36
2022-08-25T10:21:39.575Z,68.98
2022-08-25T10:24:08.457Z,68.61
2022-08-25T10:27:03.375Z,67.93
2022-08-25T10:30:03.003Z,67.41
2022-08-25T10:33:08.154Z,67.34
2022-08-25T10:36:10.360Z,66.83
2022-08-25T10:38:49.980Z,66.15
2022-08-25T10:41:39.096Z,66.52
2022-08-25T10:44:34.277Z,65.85
2022-08-25T10:47:44.004Z,65.60
2022-08-25T10:50:23.427Z,64.96
2022-08-25T10:53:00.815Z,64.27
2022-08-25T10:55:47.113Z,64.10
2022-08-25T10:58:44.684Z,64.30
2022-08-25T11:01:44.113Z,64.03
2022-08-25T11:04:47.219Z,63.43
2022-08-25T11:07:28.875Z,63.48
2022-08-25T11:10:02.740Z,63.05
2022-08-25T11:12:34.900Z,62.89
2022-08-25T11:15:09.954Z,63.21
2022-08-25T11:17:53.103Z,63.27
2022-08-25T11:20:28.694Z,63.44
2022-08-25T11:23:08.687Z,63.58
2022-08-25T11:25:43.010Z,61.78
2022-08-25T11:28:35.809Z,61.54
2022-08-25T11:31:04.421Z,61.51
2022-08-25T11:33:33.058Z,61.66
2022-08-25T11:36:12.801Z,61.37
2022-08-25T11:38:55.051Z,61.04
2022-08-25T11:41:43.391Z,60.33
2022-08-25T11:44:39.197Z,60.12
2022-08-25T11:47:27.193Z,60.24
2022-08-25T11:50:07.360Z,59.70
2022-08-25T11:52:34.978Z,59.50
2022-08-25T11:55:16.656Z,59.33
2022-08-25T11:57:46.795Z,59.48
2022-08-25T12:00:41.819Z,59.31
2022-08-25T12:03:36.818Z,58.86
2022-08-25T12:06:21.722Z,58.43
2022-08-25T12:08:48.573Z,58.46
2022-08-25T12:11:37.775Z,58.92
2022-08-25T12:14:13.937Z,58.39
2022-08-25T12:16:45.711Z,57.94
2022-08-25T12:19:26.029Z,57.37
2022-08-25T12:22:18.878Z,57.14
2022-08-25T12:25:03.257Z,56.83
2022-08-25T12:27:46.136Z,56.37
2022-08-25T12:30:45.687Z,57.07
2022-08-25T12:33:15.185Z,56.34
2022-08-25T12:35:59.164Z,55.94
2022-08-25T12:38:51.919Z,55.91
2022-08-25T12:41:27.233Z,55.55
2022-08-25T12:44:39.638Z,55.66
2022-08-25T12:47:32.350Z,55.40
2022-08-25T12:50:33.367Z,54.27
2022-08-25T12:53:13.982Z,54.19
2022-08-25T12:55:47.407Z,53.67
2022-08-25T12:58:16.208Z,53.28
2022-08-25T13:01:10.643Z,52.87
2022-08-25T13:03:58.462Z,52.05
2022-08-25T13:06:55.969Z,51.68
2022-08-25T13:09:39.769Z,51.54
2022-08-25T13:12:17.731Z,51.98
2022-08-25T13:14:52.086Z,52.27
2022-08-25T13:17:36.702Z,52.17
2022-08-25T13:20:15.889Z,51.27
2022-08-25T13:22:47.425Z,51.79
2022-08-25T13:25:18.320Z,51.84
2022-08-25T13:27:53.388Z,51.85
2022-08-25T13:30:28.997Z,51.86
2022-08-25T13:32:55.882Z,52.18
2022-08-25T13:35:32.507Z,52.14
2022-08-25T13:38:18.219Z,52.23
2022-08-25T13:40:45.482Z,52.49
2022-08-25T13:43:14.936Z,52.76
2022-08-25T13:45:47.057Z,53.06
2022-08-25T13:48:30.888Z,52.20
2022-08-25T13:51:23.752Z,52.48
2022-08-25T13:53:59.094Z,52.43
2022-08-25T13:56:41.177Z,52.48
2022-08-25T13:59:25.743Z,52.30
2022-08-25T14:01:55.098Z,51.27
2022-08-25T14:04:32.587Z,50.71
2022-08-25T14:07:14.243Z,50.39
2022-08-25T14:09:48.227Z,51.15
2022-08-25T14:12:39.451Z,50.28
2022-08-25T14:15:16.877Z,50.40
2022-08-25T14:17:59.479Z,49.63
2022-08-25T14:20:29.139Z,49.69
2022-08-25T14:22:59.353Z,48.84
2022-08-25T14:25:28.018Z,48.94
2022-08-25T14:28:08.101Z,48.71
2022-08-25T14:30:55.971Z,49.23
2022-08-25T14:33:26.816Z,49.44
2022-08-25T14:35:57.838Z,48.92
2022-08-25T14:38:24.977Z,49.75
2022-08-25T14:40:53.386Z,49.51
2022-08-25T14:43:24.155Z,49.25
2022-08-25T14:45:58.280Z,47.58
2022-08-25T14:48:35.463Z,47.41
2022-08-25T14:51:03.848Z,48.25
2022-08-25T14:53:30.459Z,47.68
2022-08-25T14:55:59.023Z,48.32
2022-08-25T14:58:26.875Z,47.70
2022-08-25T15:00:54.160Z,47.80
2022-08-25T15:03:32.865Z,47.38
2022-08-25T15:06:01.345Z,47.95
2022-08-25T15:08:46.720Z,47.51
2022-08-25T15:11:14.579Z,47.71
2022-08-25T15:13:44.645Z,46.45
2022-08-25T15:16:20.870Z,46.89
2022-08-25T15:18:47.631Z,47.01
2022-08-25T15:21:15.830Z,46.73
2022-08-25T15:23:44.568Z,47.02
2022-08-25T15:26:15.447Z,46.02
2022-08-25T15:28:48.640Z,45.72
2022-08-25T15:31:17.003Z,46.25
2022-08-25T15:33:44.201Z,46.19
2022-08-25T15:36:15.203Z,46.03
2022-08-25T15:38:46.709Z,45.41
2022-08-25T15:41:13.278Z,45.40
2022-08-25T15:43:39.933Z,45.25
2022-08-25T15:46:07.114Z,44.96
2022-08-25T15:48:35.253Z,44.44
2022-08-25T15:51:02.082Z,43.65
2022-08-25T15:53:31.300Z,41.69
2022-08-25T15:55:57.946Z,40.44
2022-08-25T15:58:32.423Z,39.14
2022-08-25T16:00:59.853Z,37.71
2022-08-25T16:03:27.147Z,36.80
2022-08-25T16:05:53.937Z,36.51
2022-08-25T16:08:20.657Z,35.83
2022-08-25T16:10:47.515Z,35.56
2022-08-25T16:13:14.450Z,34.62
2022-08-25T16:15:46.782Z,33.67
2022-08-25T16:18:19.600Z,33.10
2022-08-25T16:20:47.689Z,31.74
2022-08-25T16:23:16.045Z,31.01
2022-08-25T16:25:44.946Z,30.77
2022-08-25T16:28:15.830Z,31.33
2022-08-25T16:30:52.449Z,31.76
2022-08-25T16:33:20.395Z,31.74
2022-08-25T16:35:47.626Z,32.34
2022-08-25T16:38:16.011Z,32.88
2022-08-25T16:40:43.204Z,32.97
2022-08-25T16:43:10.602Z,33.82
2022-08-25T16:45:37.483Z,33.95
2022-08-25T16:48:05.681Z,34.52
2022-08-25T16:50:34.619Z,35.59
2022-08-25T16:53:20.041Z,36.39
2022-08-25T16:58:26.172Z,37.65
2022-08-25T17:00:53.525Z,37.94
2022-08-25T17:03:21.200Z,38.70
2022-08-25T17:05:48.764Z,38.90
2022-08-25T17:08:31.220Z,39.12
2022-08-25T17:11:10.777Z,39.79
2022-08-25T17:13:39.868Z,40.27
2022-08-25T17:16:12.320Z,40.78
2022-08-25T17:18:41.961Z,41.51
2022-08-25T17:21:19.539Z,41.62
2022-08-25T17:23:51.232Z,42.46
2022-08-25T17:26:18.395Z,43.19
2022-08-25T17:28:46.085Z,43.05
2022-08-25T17:31:14.325Z,43.91
2022-08-25T17:33:41.805Z,44.10
2022-08-25T17:36:09.332Z,44.81
2022-08-25T17:38:37.128Z,45.20
2022-08-25T17:41:09.002Z,45.63
2022-08-25T17:43:38.565Z,45.78
2022-08-25T17:46:05.971Z,46.36
2022-08-25T17:48:33.184Z,46.79
2022-08-25T17:51:01.103Z,47.24
2022-08-25T17:53:27.876Z,47.77
2022-08-25T17:56:00.424Z,48.24
2022-08-25T17:58:28.409Z,48.55
2022-08-25T18:00:56.735Z,48.64
2022-08-25T18:03:25.547Z,49.13
2022-08-25T18:05:53.039Z,49.34
2022-08-25T18:08:19.966Z,50.23
2022-08-25T18:10:58.655Z,50.50
2022-08-25T18:13:26.757Z,50.96
2022-08-25T18:15:55.072Z,51.15
2022-08-25T18:18:21.590Z,51.73
2022-08-25T18:20:51.118Z,52.29
2022-08-25T18:23:19.770Z,52.56
2022-08-25T18:25:48.749Z,52.94
2022-08-25T18:28:15.668Z,53.63
2022-08-25T18:30:42.779Z,53.58
2022-08-25T18:33:10.425Z,54.16
2022-08-25T18:35:38.032Z,54.59
2022-08-25T18:38:24.860Z,54.96
2022-08-25T18:41:10.535Z,55.08
2022-08-25T18:43:39.022Z,55.39
2022-08-25T18:46:06.555Z,56.06
2022-08-25T18:48:34.978Z,56.34
2022-08-25T18:51:02.444Z,56.73
2022-08-25T18:53:37.480Z,56.99
2022-08-25T18:56:16.589Z,57.09
2022-08-25T18:58:43.205Z,57.44
2022-08-25T19:01:13.596Z,58.10
2022-08-25T19:03:40.240Z,58.74
2022-08-25T19:06:07.060Z,58.56
2022-08-25T19:08:33.622Z,59.18
2022-08-25T19:11:00.169Z,59.34
2022-08-25T19:13:26.771Z,60.06
2022-08-25T19:15:53.973Z,60.07
2022-08-25T19:18:25.975Z,60.59
2022-08-25T19:20:52.748Z,60.75
2022-08-25T19:23:19.673Z,61.19
2022-08-25T19:25:46.760Z,61.30
2022-08-25T19:28:13.764Z,61.66
2022-08-25T19:30:49.777Z,61.88
2022-08-25T19:33:42.460Z,62.29
2022-08-25T19:36:08.686Z,62.34
2022-08-25T19:38:37.245Z,63.16
2022-08-25T19:41:13.909Z,63.42
2022-08-25T19:43:50.579Z,63.53
2022-08-25T19:46:23.230Z,63.91
2022-08-25T19:48:49.884Z,64.51
2022-08-25T19:51:19.363Z,64.59
2022-08-25T19:53:54.293Z,64.67
2022-08-25T19:56:22.468Z,64.88
2022-08-25T19:58:49.044Z,65.60
2022-08-25T20:01:18.181Z,65.55
2022-08-25T20:03:45.553Z,66.20
2022-08-25T20:06:15.856Z,66.36
2022-08-25T20:08:43.737Z,66.94
2022-08-25T20:11:11.005Z,67.03
2022-08-25T20:13:37.768Z,67.46
2022-08-25T20:16:05.482Z,67.59
2022-08-25T20:18:32.452Z,67.88
2022-08-25T20:20:59.040Z,68.19
2022-08-25T20:23:44.121Z,68.45
2022-08-25T20:26:10.663Z,68.44
2022-08-25T20:28:37.290Z,68.87
2022-08-25T20:31:04.060Z,69.34
2022-08-25T20:33:30.875Z,69.48
2022-08-25T20:35:58.344Z,69.54
2022-08-25T20:38:26.935Z,69.90
2022-08-25T20:40:53.453Z,70.20
2022-08-25T20:43:20.854Z,70.29
2022-08-25T20:45:47.827Z,70.50
2022-08-25T20:48:14.419Z,70.79
2022-08-25T20:50:40.965Z,70.82
2022-08-25T20:53:10.303Z,71.24
2022-08-25T20:55:43.850Z,71.66
2022-08-25T20:58:12.637Z,71.94
2022-08-25T21:00:45.691Z,72.05
2022-08-25T21:03:12.438Z,72.29
2022-08-25T21:05:41.227Z,72.52
2022-08-25T21:08:08.299Z,72.48
2022-08-25T21:10:35.205Z,72.88
2022-08-25T21:13:02.053Z,73.10
2022-08-25T21:15:28.748Z,73.47
2022-08-25T21:17:55.659Z,73.49
2022-08-25T21:20:23.908Z,73.65
2022-08-25T21:22:51.442Z,73.79
2022-08-25T21:25:21.217Z,74.08
2022-08-25T21:27:47.942Z,74.42
2022-08-25T21:30:16.183Z,74.80
2022-08-25T21:32:53.139Z,74.66
2022-08-25T21:35:22.397Z,75.06
2022-08-25T21:37:53.459Z,75.31
2022-08-25T21:40:21.764Z,75.48
2022-08-25T21:42:48.911Z,75.43
2022-08-25T21:45:15.652Z,75.80
2022-08-25T21:47:42.608Z,76.13
2022-08-25T21:50:13.825Z,76.26
2022-08-25T21:52:41.265Z,76.44
2022-08-25T21:55:15.781Z,76.73
2022-08-25T21:57:43.794Z,76.80
2022-08-25T22:00:13.038Z,77.04
2022-08-25T22:02:39.594Z,77.26
2022-08-25T22:05:11.502Z,77.20
2022-08-25T22:07:42.085Z,77.44
2022-08-25T22:10:16.801Z,77.70
2022-08-25T22:12:45.784Z,77.91
2022-08-25T22:15:13.572Z,78.01
2022-08-25T22:17:40.499Z,78.32
2022-08-25T22:20:08.391Z,78.35
2022-08-25T22:22:35.624Z,78.48
2022-08-25T22:25:03.178Z,78.94
2022-08-25T22:27:30.319Z,78.99
2022-08-25T22:29:56.977Z,79.15
2022-08-25T22:32:23.606Z,79.16
2022-08-25T22:34:50.448Z,79.70
2022-08-25T22:37:17.938Z,79.57
2022-08-25T22:39:45.727Z,79.80
2022-08-25T22:42:12.545Z,80.09
2022-08-25T22:44:40.656Z,80.01
2022-08-25T22:47:07.499Z,80.18
2022-08-25T22:49:35.475Z,80.42
2022-08-25T22:52:02.195Z,80.43
2022-08-25T22:54:29.898Z,80.72
2022-08-25T22:56:56.531Z,80.91
2022-08-25T22:59:23.360Z,81.05
2022-08-25T23:01:52.590Z,81.42
2022-08-25T23:04:21.689Z,81.43
2022-08-25T23:06:49.296Z,81.71
2022-08-25T23:09:16.029Z,81.85
2022-08-25T23:11:43.031Z,81.91
2022-08-25T23:14:11.054Z,82.05
2022-08-25T23:16:42.340Z,82.12
2022-08-25T23:19:13.976Z,82.27
2022-08-25T23:21:59.577Z,82.63
2022-08-25T23:24:29.994Z,82.86
2022-08-25T23:27:03.903Z,82.88
2022-08-25T23:29:31.767Z,83.12
2022-08-25T23:31:58.664Z,83.23
2022-08-25T23:34:26.669Z,83.18
2022-08-25T23:36:55.963Z,83.54
2022-08-25T23:39:22.544Z,83.55
2022-08-25T23:41:49.809Z,83.76
2022-08-25T23:44:17.217Z,83.99
2022-08-25T23:46:44.874Z,83.86
2022-08-25T23:49:11.809Z,84.06
2022-08-25T23:51:40.035Z,84.34
2022-08-25T23:54:10.826Z,84.31
2022-08-25T23:56:44.914Z,84.31
2022-08-25T23:59:24.322Z,84.64
